Chahbahar, Iran
Current Conditions -  °F | °C
As of 3:00 AM on Friday 28 Nov 2014 (Local Time) from OIZI Reporting Station
Clear Clear  
Wind Chill: 57°   Ceiling: Unl
Heat Index: 57°   Visibility: 6mi
Dew Point: 39°   Wind: 7mph
Humidity: 51%   Direction: 350°N
Pressure: 29.97"   Gusts: NA
Location:  25.28°N, 60.62°E
Report Text: OIZI 280000Z 35006KT CAVOK 14/04 Q1015
Loading
Personal Weather Stations






























Interactive Weather Map New forecast layout! Learn more

10-Day Weather Forecast

Advertisements
Track Severe Weather on mobile